sensor_id;sensor_type;location;lat;lon;timestamp;P1;durP1;ratioP1;P2;durP2;ratioP2
20986;SDS011;10652;50.306;8.570;2023-09-12T00:02:27;9.85;;;4.90;;
20986;SDS011;10652;50.306;8.570;2023-09-12T00:06:31;13.88;;;5.22;;
20986;SDS011;10652;50.306;8.570;2023-09-12T00:10:33;12.30;;;4.72;;
20986;SDS011;10652;50.306;8.570;2023-09-12T00:14:35;15.20;;;5.38;;
20986;SDS011;10652;50.306;8.570;2023-09-12T00:18:38;13.80;;;5.35;;
20986;SDS011;10652;50.306;8.570;2023-09-12T00:22:41;12.20;;;5.25;;
20986;SDS011;10652;50.306;8.570;2023-09-12T00:26:43;13.98;;;5.78;;
20986;SDS011;10652;50.306;8.570;2023-09-12T00:30:45;15.18;;;5.88;;
20986;SDS011;10652;50.306;8.570;2023-09-12T00:34:47;17.38;;;6.53;;
20986;SDS011;10652;50.306;8.570;2023-09-12T00:38:49;15.68;;;6.32;;
20986;SDS011;10652;50.306;8.570;2023-09-12T00:42:52;12.23;;;6.45;;
20986;SDS011;10652;50.306;8.570;2023-09-12T00:46:54;13.65;;;5.63;;
20986;SDS011;10652;50.306;8.570;2023-09-12T00:50:57;12.15;;;6.07;;
20986;SDS011;10652;50.306;8.570;2023-09-12T00:55:00;12.15;;;5.93;;
20986;SDS011;10652;50.306;8.570;2023-09-12T00:59:02;16.00;;;6.47;;
20986;SDS011;10652;50.306;8.570;2023-09-12T01:03:06;12.65;;;5.97;;
20986;SDS011;10652;50.306;8.570;2023-09-12T01:07:08;11.52;;;6.43;;
20986;SDS011;10652;50.306;8.570;2023-09-12T01:11:11;11.95;;;5.93;;
20986;SDS011;10652;50.306;8.570;2023-09-12T01:15:15;12.73;;;6.05;;
20986;SDS011;10652;50.306;8.570;2023-09-12T01:19:18;11.32;;;5.40;;
20986;SDS011;10652;50.306;8.570;2023-09-12T01:23:27;10.95;;;5.30;;
20986;SDS011;10652;50.306;8.570;2023-09-12T01:27:47;13.30;;;5.45;;
20986;SDS011;10652;50.306;8.570;2023-09-12T01:31:52;12.48;;;5.60;;
20986;SDS011;10652;50.306;8.570;2023-09-12T01:35:55;10.13;;;5.15;;
20986;SDS011;10652;50.306;8.570;2023-09-12T01:39:57;13.70;;;5.40;;
20986;SDS011;10652;50.306;8.570;2023-09-12T01:44:00;11.93;;;5.32;;
20986;SDS011;10652;50.306;8.570;2023-09-12T01:48:05;12.30;;;5.45;;
20986;SDS011;10652;50.306;8.570;2023-09-12T01:52:09;9.82;;;5.40;;
20986;SDS011;10652;50.306;8.570;2023-09-12T01:56:12;11.63;;;5.25;;
20986;SDS011;10652;50.306;8.570;2023-09-12T02:00:16;12.52;;;6.22;;
20986;SDS011;10652;50.306;8.570;2023-09-12T02:04:19;10.82;;;5.95;;
20986;SDS011;10652;50.306;8.570;2023-09-12T02:08:21;11.98;;;5.03;;
20986;SDS011;10652;50.306;8.570;2023-09-12T02:12:24;9.45;;;4.90;;
20986;SDS011;10652;50.306;8.570;2023-09-12T02:16:26;17.38;;;5.78;;
20986;SDS011;10652;50.306;8.570;2023-09-12T02:20:28;9.30;;;4.85;;
20986;SDS011;10652;50.306;8.570;2023-09-12T02:24:30;9.07;;;5.45;;
20986;SDS011;10652;50.306;8.570;2023-09-12T02:28:35;12.23;;;6.10;;
20986;SDS011;10652;50.306;8.570;2023-09-12T02:32:37;10.68;;;5.47;;
20986;SDS011;10652;50.306;8.570;2023-09-12T02:36:39;12.02;;;5.65;;
20986;SDS011;10652;50.306;8.570;2023-09-12T02:40:42;11.60;;;5.72;;
20986;SDS011;10652;50.306;8.570;2023-09-12T02:44:44;11.48;;;5.57;;
20986;SDS011;10652;50.306;8.570;2023-09-12T02:48:46;11.43;;;5.22;;
20986;SDS011;10652;50.306;8.570;2023-09-12T02:52:48;12.98;;;6.25;;
20986;SDS011;10652;50.306;8.570;2023-09-12T02:56:50;14.63;;;5.90;;
20986;SDS011;10652;50.306;8.570;2023-09-12T03:00:52;10.77;;;5.65;;
20986;SDS011;10652;50.306;8.570;2023-09-12T03:04:56;12.95;;;5.95;;
20986;SDS011;10652;50.306;8.570;2023-09-12T03:08:58;12.50;;;5.72;;
20986;SDS011;10652;50.306;8.570;2023-09-12T03:13:01;12.80;;;6.28;;
20986;SDS011;10652;50.306;8.570;2023-09-12T03:17:03;12.35;;;5.50;;
20986;SDS011;10652;50.306;8.570;2023-09-12T03:21:06;11.23;;;5.43;;
20986;SDS011;10652;50.306;8.570;2023-09-12T03:25:08;12.45;;;6.05;;
20986;SDS011;10652;50.306;8.570;2023-09-12T03:29:10;11.85;;;5.60;;
20986;SDS011;10652;50.306;8.570;2023-09-12T03:33:13;11.98;;;5.82;;
20986;SDS011;10652;50.306;8.570;2023-09-12T03:37:15;8.02;;;5.47;;
20986;SDS011;10652;50.306;8.570;2023-09-12T03:41:17;7.38;;;5.30;;
20986;SDS011;10652;50.306;8.570;2023-09-12T03:45:20;10.68;;;5.22;;
20986;SDS011;10652;50.306;8.570;2023-09-12T03:49:22;13.10;;;6.28;;
20986;SDS011;10652;50.306;8.570;2023-09-12T03:53:24;14.90;;;6.75;;
20986;SDS011;10652;50.306;8.570;2023-09-12T03:57:28;12.88;;;6.18;;
20986;SDS011;10652;50.306;8.570;2023-09-12T04:01:30;10.73;;;6.05;;
20986;SDS011;10652;50.306;8.570;2023-09-12T04:05:33;13.75;;;6.20;;
20986;SDS011;10652;50.306;8.570;2023-09-12T04:09:37;11.20;;;6.05;;
20986;SDS011;10652;50.306;8.570;2023-09-12T04:13:39;15.43;;;6.82;;
20986;SDS011;10652;50.306;8.570;2023-09-12T04:17:41;11.73;;;5.82;;
20986;SDS011;10652;50.306;8.570;2023-09-12T04:21:43;12.35;;;6.10;;
20986;SDS011;10652;50.306;8.570;2023-09-12T04:25:46;11.38;;;5.68;;
20986;SDS011;10652;50.306;8.570;2023-09-12T04:29:48;9.65;;;5.30;;
20986;SDS011;10652;50.306;8.570;2023-09-12T04:33:51;12.07;;;5.60;;
20986;SDS011;10652;50.306;8.570;2023-09-12T04:37:54;11.07;;;5.10;;
20986;SDS011;10652;50.306;8.570;2023-09-12T04:41:56;15.20;;;6.10;;
20986;SDS011;10652;50.306;8.570;2023-09-12T04:45:58;12.77;;;6.22;;
20986;SDS011;10652;50.306;8.570;2023-09-12T04:50:01;13.40;;;5.90;;
20986;SDS011;10652;50.306;8.570;2023-09-12T04:54:03;12.15;;;5.88;;
20986;SDS011;10652;50.306;8.570;2023-09-12T04:58:06;14.07;;;6.38;;
20986;SDS011;10652;50.306;8.570;2023-09-12T05:02:09;12.30;;;6.45;;
20986;SDS011;10652;50.306;8.570;2023-09-12T05:06:12;10.93;;;6.18;;
20986;SDS011;10652;50.306;8.570;2023-09-12T05:10:15;12.95;;;6.30;;
20986;SDS011;10652;50.306;8.570;2023-09-12T05:14:18;14.07;;;6.32;;
20986;SDS011;10652;50.306;8.570;2023-09-12T05:18:20;13.52;;;6.05;;
20986;SDS011;10652;50.306;8.570;2023-09-12T05:22:23;9.70;;;6.50;;
20986;SDS011;10652;50.306;8.570;2023-09-12T05:26:25;12.80;;;6.50;;
20986;SDS011;10652;50.306;8.570;2023-09-12T05:30:28;12.80;;;6.47;;
20986;SDS011;10652;50.306;8.570;2023-09-12T05:34:30;11.15;;;5.82;;
20986;SDS011;10652;50.306;8.570;2023-09-12T05:38:32;14.32;;;6.32;;
20986;SDS011;10652;50.306;8.570;2023-09-12T05:42:34;15.25;;;7.00;;
20986;SDS011;10652;50.306;8.570;2023-09-12T05:46:36;14.60;;;6.82;;
20986;SDS011;10652;50.306;8.570;2023-09-12T05:50:39;13.45;;;6.55;;
20986;SDS011;10652;50.306;8.570;2023-09-12T05:54:41;14.38;;;6.60;;
20986;SDS011;10652;50.306;8.570;2023-09-12T05:58:44;12.93;;;5.93;;
20986;SDS011;10652;50.306;8.570;2023-09-12T06:02:47;12.85;;;6.18;;
20986;SDS011;10652;50.306;8.570;2023-09-12T06:06:50;13.43;;;6.38;;
20986;SDS011;10652;50.306;8.570;2023-09-12T06:10:52;11.90;;;6.07;;
20986;SDS011;10652;50.306;8.570;2023-09-12T06:14:56;11.88;;;5.88;;
20986;SDS011;10652;50.306;8.570;2023-09-12T06:18:58;9.38;;;5.25;;
20986;SDS011;10652;50.306;8.570;2023-09-12T06:23:00;18.02;;;6.57;;
20986;SDS011;10652;50.306;8.570;2023-09-12T06:27:02;14.52;;;6.65;;
20986;SDS011;10652;50.306;8.570;2023-09-12T06:31:08;12.13;;;6.25;;
20986;SDS011;10652;50.306;8.570;2023-09-12T06:35:11;14.98;;;6.53;;
20986;SDS011;10652;50.306;8.570;2023-09-12T06:39:13;12.27;;;5.90;;
20986;SDS011;10652;50.306;8.570;2023-09-12T06:43:15;14.23;;;6.78;;
20986;SDS011;10652;50.306;8.570;2023-09-12T06:47:17;13.15;;;6.50;;
20986;SDS011;10652;50.306;8.570;2023-09-12T06:51:22;14.25;;;6.15;;
20986;SDS011;10652;50.306;8.570;2023-09-12T06:55:25;12.73;;;5.70;;
20986;SDS011;10652;50.306;8.570;2023-09-12T06:59:29;17.83;;;6.85;;
20986;SDS011;10652;50.306;8.570;2023-09-12T07:03:35;12.88;;;6.22;;
20986;SDS011;10652;50.306;8.570;2023-09-12T07:07:37;10.88;;;5.90;;
20986;SDS011;10652;50.306;8.570;2023-09-12T07:11:43;11.07;;;6.18;;
20986;SDS011;10652;50.306;8.570;2023-09-12T07:15:46;13.52;;;6.38;;
20986;SDS011;10652;50.306;8.570;2023-09-12T07:19:48;14.05;;;6.55;;
20986;SDS011;10652;50.306;8.570;2023-09-12T07:23:50;14.43;;;6.45;;
20986;SDS011;10652;50.306;8.570;2023-09-12T07:27:52;13.95;;;6.90;;
20986;SDS011;10652;50.306;8.570;2023-09-12T07:31:54;11.80;;;5.93;;
20986;SDS011;10652;50.306;8.570;2023-09-12T07:35:59;9.20;;;5.75;;
20986;SDS011;10652;50.306;8.570;2023-09-12T07:40:05;17.00;;;6.57;;
20986;SDS011;10652;50.306;8.570;2023-09-12T07:44:11;14.43;;;6.53;;
20986;SDS011;10652;50.306;8.570;2023-09-12T07:48:13;15.13;;;6.80;;
20986;SDS011;10652;50.306;8.570;2023-09-12T07:52:15;13.77;;;6.32;;
20986;SDS011;10652;50.306;8.570;2023-09-12T07:56:17;9.43;;;5.30;;
20986;SDS011;10652;50.306;8.570;2023-09-12T08:00:20;12.65;;;5.57;;
20986;SDS011;10652;50.306;8.570;2023-09-12T08:04:23;10.27;;;5.00;;
20986;SDS011;10652;50.306;8.570;2023-09-12T08:08:25;12.43;;;5.22;;
20986;SDS011;10652;50.306;8.570;2023-09-12T08:12:27;11.15;;;5.18;;
20986;SDS011;10652;50.306;8.570;2023-09-12T08:16:30;12.40;;;4.22;;
20986;SDS011;10652;50.306;8.570;2023-09-12T08:20:33;11.48;;;4.20;;
20986;SDS011;10652;50.306;8.570;2023-09-12T08:24:36;10.55;;;4.20;;
20986;SDS011;10652;50.306;8.570;2023-09-12T08:28:38;11.70;;;4.20;;
20986;SDS011;10652;50.306;8.570;2023-09-12T08:32:41;11.77;;;3.95;;
20986;SDS011;10652;50.306;8.570;2023-09-12T08:36:46;11.02;;;4.03;;
20986;SDS011;10652;50.306;8.570;2023-09-12T08:40:49;10.13;;;3.83;;
20986;SDS011;10652;50.306;8.570;2023-09-12T08:44:52;20.80;;;4.38;;
20986;SDS011;10652;50.306;8.570;2023-09-12T08:48:55;10.90;;;3.90;;
20986;SDS011;10652;50.306;8.570;2023-09-12T08:52:57;10.65;;;3.92;;
20986;SDS011;10652;50.306;8.570;2023-09-12T08:57:09;10.70;;;4.28;;
20986;SDS011;10652;50.306;8.570;2023-09-12T09:01:14;9.50;;;3.92;;
20986;SDS011;10652;50.306;8.570;2023-09-12T09:05:20;11.82;;;4.13;;
20986;SDS011;10652;50.306;8.570;2023-09-12T09:09:25;11.68;;;4.55;;
20986;SDS011;10652;50.306;8.570;2023-09-12T09:13:27;10.45;;;4.00;;
20986;SDS011;10652;50.306;8.570;2023-09-12T09:17:30;12.43;;;4.00;;
20986;SDS011;10652;50.306;8.570;2023-09-12T09:21:35;13.18;;;3.92;;
20986;SDS011;10652;50.306;8.570;2023-09-12T09:25:41;14.38;;;4.18;;
20986;SDS011;10652;50.306;8.570;2023-09-12T09:29:45;11.60;;;4.00;;
20986;SDS011;10652;50.306;8.570;2023-09-12T09:33:49;10.65;;;4.13;;
20986;SDS011;10652;50.306;8.570;2023-09-12T09:37:53;10.35;;;4.00;;
20986;SDS011;10652;50.306;8.570;2023-09-12T09:41:56;11.77;;;4.38;;
20986;SDS011;10652;50.306;8.570;2023-09-12T09:45:58;10.48;;;4.18;;
20986;SDS011;10652;50.306;8.570;2023-09-12T09:50:01;10.95;;;3.63;;
20986;SDS011;10652;50.306;8.570;2023-09-12T09:54:07;8.68;;;3.45;;
20986;SDS011;10652;50.306;8.570;2023-09-12T09:58:14;8.80;;;4.03;;
20986;SDS011;10652;50.306;8.570;2023-09-12T10:02:20;12.40;;;4.25;;
20986;SDS011;10652;50.306;8.570;2023-09-12T10:06:27;12.15;;;4.43;;
20986;SDS011;10652;50.306;8.570;2023-09-12T10:10:30;8.55;;;3.60;;
20986;SDS011;10652;50.306;8.570;2023-09-12T10:14:34;13.52;;;4.20;;
20986;SDS011;10652;50.306;8.570;2023-09-12T10:18:43;8.85;;;4.13;;
20986;SDS011;10652;50.306;8.570;2023-09-12T10:23:14;12.52;;;4.05;;
20986;SDS011;10652;50.306;8.570;2023-09-12T10:27:22;10.68;;;4.00;;
20986;SDS011;10652;50.306;8.570;2023-09-12T10:31:26;12.25;;;3.63;;
20986;SDS011;10652;50.306;8.570;2023-09-12T10:35:30;9.27;;;3.53;;
20986;SDS011;10652;50.306;8.570;2023-09-12T10:39:36;6.75;;;3.70;;
20986;SDS011;10652;50.306;8.570;2023-09-12T10:43:40;17.38;;;4.30;;
20986;SDS011;10652;50.306;8.570;2023-09-12T10:47:44;10.93;;;3.90;;
20986;SDS011;10652;50.306;8.570;2023-09-12T10:51:46;9.10;;;4.25;;
20986;SDS011;10652;50.306;8.570;2023-09-12T10:56:32;12.32;;;3.88;;
20986;SDS011;10652;50.306;8.570;2023-09-12T11:00:15;11.55;;;4.60;;
20986;SDS011;10652;50.306;8.570;2023-09-12T11:08:29;12.85;;;3.92;;
20986;SDS011;10652;50.306;8.570;2023-09-12T11:12:37;11.48;;;4.30;;
20986;SDS011;10652;50.306;8.570;2023-09-12T11:16:39;11.77;;;3.92;;
20986;SDS011;10652;50.306;8.570;2023-09-12T11:25:23;7.13;;;3.80;;
20986;SDS011;10652;50.306;8.570;2023-09-12T11:29:33;10.75;;;3.95;;
20986;SDS011;10652;50.306;8.570;2023-09-12T11:33:40;8.95;;;4.00;;
20986;SDS011;10652;50.306;8.570;2023-09-12T11:37:50;11.52;;;4.38;;
20986;SDS011;10652;50.306;8.570;2023-09-12T11:41:58;12.88;;;4.38;;
20986;SDS011;10652;50.306;8.570;2023-09-12T11:46:01;7.55;;;3.97;;
20986;SDS011;10652;50.306;8.570;2023-09-12T11:50:03;12.73;;;4.15;;
20986;SDS011;10652;50.306;8.570;2023-09-12T11:54:06;7.38;;;4.25;;
20986;SDS011;10652;50.306;8.570;2023-09-12T11:58:08;9.77;;;4.00;;
20986;SDS011;10652;50.306;8.570;2023-09-12T12:02:11;8.65;;;4.35;;
20986;SDS011;10652;50.306;8.570;2023-09-12T12:06:13;12.90;;;4.57;;
20986;SDS011;10652;50.306;8.570;2023-09-12T12:10:18;9.57;;;3.80;;
20986;SDS011;10652;50.306;8.570;2023-09-12T12:14:20;11.20;;;4.75;;
20986;SDS011;10652;50.306;8.570;2023-09-12T12:18:22;7.00;;;4.13;;
20986;SDS011;10652;50.306;8.570;2023-09-12T12:22:25;11.27;;;4.40;;
20986;SDS011;10652;50.306;8.570;2023-09-12T12:26:27;9.70;;;4.70;;
20986;SDS011;10652;50.306;8.570;2023-09-12T12:30:35;13.15;;;4.07;;
20986;SDS011;10652;50.306;8.570;2023-09-12T12:34:39;7.75;;;4.05;;
20986;SDS011;10652;50.306;8.570;2023-09-12T12:39:01;13.00;;;5.05;;
20986;SDS011;10652;50.306;8.570;2023-09-12T12:43:03;6.85;;;3.55;;
20986;SDS011;10652;50.306;8.570;2023-09-12T12:47:06;13.05;;;4.70;;
20986;SDS011;10652;50.306;8.570;2023-09-12T12:51:18;8.73;;;4.50;;
20986;SDS011;10652;50.306;8.570;2023-09-12T12:55:25;8.13;;;3.95;;
20986;SDS011;10652;50.306;8.570;2023-09-12T12:59:28;10.77;;;4.28;;
20986;SDS011;10652;50.306;8.570;2023-09-12T13:03:31;9.90;;;4.53;;
20986;SDS011;10652;50.306;8.570;2023-09-12T13:07:34;11.75;;;4.63;;
20986;SDS011;10652;50.306;8.570;2023-09-12T13:11:39;13.07;;;4.82;;
20986;SDS011;10652;50.306;8.570;2023-09-12T13:15:41;9.60;;;4.40;;
20986;SDS011;10652;50.306;8.570;2023-09-12T13:19:44;9.25;;;4.53;;
20986;SDS011;10652;50.306;8.570;2023-09-12T13:23:46;12.05;;;4.82;;
20986;SDS011;10652;50.306;8.570;2023-09-12T13:27:49;9.38;;;4.50;;
20986;SDS011;10652;50.306;8.570;2023-09-12T13:31:51;10.00;;;4.43;;
20986;SDS011;10652;50.306;8.570;2023-09-12T13:35:53;13.10;;;4.72;;
20986;SDS011;10652;50.306;8.570;2023-09-12T13:39:55;13.80;;;4.75;;
20986;SDS011;10652;50.306;8.570;2023-09-12T13:43:58;13.77;;;4.78;;
20986;SDS011;10652;50.306;8.570;2023-09-12T13:48:00;15.75;;;5.50;;
20986;SDS011;10652;50.306;8.570;2023-09-12T13:52:02;11.63;;;4.88;;
20986;SDS011;10652;50.306;8.570;2023-09-12T13:56:05;11.43;;;4.80;;
20986;SDS011;10652;50.306;8.570;2023-09-12T14:00:10;10.77;;;4.45;;
20986;SDS011;10652;50.306;8.570;2023-09-12T14:04:12;11.23;;;4.40;;
20986;SDS011;10652;50.306;8.570;2023-09-12T14:08:16;7.20;;;4.47;;
20986;SDS011;10652;50.306;8.570;2023-09-12T14:12:18;9.05;;;5.05;;
20986;SDS011;10652;50.306;8.570;2023-09-12T14:16:29;7.97;;;4.75;;
20986;SDS011;10652;50.306;8.570;2023-09-12T14:20:32;14.52;;;4.80;;
20986;SDS011;10652;50.306;8.570;2023-09-12T14:24:34;11.02;;;4.57;;
20986;SDS011;10652;50.306;8.570;2023-09-12T14:28:37;23.70;;;13.13;;
20986;SDS011;10652;50.306;8.570;2023-09-12T14:32:39;14.63;;;7.72;;
20986;SDS011;10652;50.306;8.570;2023-09-12T14:36:41;9.00;;;5.18;;
20986;SDS011;10652;50.306;8.570;2023-09-12T14:40:44;11.88;;;5.30;;
20986;SDS011;10652;50.306;8.570;2023-09-12T14:44:46;12.82;;;6.07;;
20986;SDS011;10652;50.306;8.570;2023-09-12T14:48:48;12.73;;;5.50;;
20986;SDS011;10652;50.306;8.570;2023-09-12T14:53:03;16.05;;;5.32;;
20986;SDS011;10652;50.306;8.570;2023-09-12T14:57:05;14.43;;;6.38;;
20986;SDS011;10652;50.306;8.570;2023-09-12T15:01:07;14.25;;;5.07;;
20986;SDS011;10652;50.306;8.570;2023-09-12T15:05:09;17.10;;;6.50;;
20986;SDS011;10652;50.306;8.570;2023-09-12T15:09:11;15.80;;;5.93;;
20986;SDS011;10652;50.306;8.570;2023-09-12T15:13:14;13.75;;;5.38;;
20986;SDS011;10652;50.306;8.570;2023-09-12T15:17:16;9.80;;;5.40;;
20986;SDS011;10652;50.306;8.570;2023-09-12T15:21:18;13.25;;;5.10;;
20986;SDS011;10652;50.306;8.570;2023-09-12T15:25:21;10.38;;;4.78;;
20986;SDS011;10652;50.306;8.570;2023-09-12T15:29:23;8.88;;;4.70;;
20986;SDS011;10652;50.306;8.570;2023-09-12T15:33:25;9.68;;;4.57;;
20986;SDS011;10652;50.306;8.570;2023-09-12T15:37:27;33.95;;;30.75;;
20986;SDS011;10652;50.306;8.570;2023-09-12T15:41:29;13.25;;;10.05;;
20986;SDS011;10652;50.306;8.570;2023-09-12T15:45:31;10.40;;;6.10;;
20986;SDS011;10652;50.306;8.570;2023-09-12T15:49:51;17.52;;;8.00;;
20986;SDS011;10652;50.306;8.570;2023-09-12T15:53:53;13.73;;;6.35;;
20986;SDS011;10652;50.306;8.570;2023-09-12T15:57:55;14.85;;;5.60;;
20986;SDS011;10652;50.306;8.570;2023-09-12T16:01:58;10.43;;;5.45;;
20986;SDS011;10652;50.306;8.570;2023-09-12T16:06:00;9.10;;;5.20;;
20986;SDS011;10652;50.306;8.570;2023-09-12T16:10:02;10.90;;;5.50;;
20986;SDS011;10652;50.306;8.570;2023-09-12T16:14:05;23.17;;;12.65;;
20986;SDS011;10652;50.306;8.570;2023-09-12T16:18:07;19.60;;;10.82;;
20986;SDS011;10652;50.306;8.570;2023-09-12T16:22:09;9.65;;;6.13;;
20986;SDS011;10652;50.306;8.570;2023-09-12T16:26:12;12.30;;;5.90;;
20986;SDS011;10652;50.306;8.570;2023-09-12T16:30:14;9.95;;;5.78;;
20986;SDS011;10652;50.306;8.570;2023-09-12T16:34:16;12.27;;;5.70;;
20986;SDS011;10652;50.306;8.570;2023-09-12T16:38:18;10.35;;;5.38;;
20986;SDS011;10652;50.306;8.570;2023-09-12T16:42:20;12.85;;;5.97;;
20986;SDS011;10652;50.306;8.570;2023-09-12T16:46:22;12.13;;;5.82;;
20986;SDS011;10652;50.306;8.570;2023-09-12T16:50:25;12.73;;;5.97;;
20986;SDS011;10652;50.306;8.570;2023-09-12T16:54:27;15.45;;;5.82;;
20986;SDS011;10652;50.306;8.570;2023-09-12T16:58:30;9.13;;;5.38;;
20986;SDS011;10652;50.306;8.570;2023-09-12T17:02:34;12.50;;;5.68;;
20986;SDS011;10652;50.306;8.570;2023-09-12T17:06:37;9.40;;;5.70;;
20986;SDS011;10652;50.306;8.570;2023-09-12T17:10:39;11.55;;;5.45;;
20986;SDS011;10652;50.306;8.570;2023-09-12T17:14:41;10.25;;;5.13;;
20986;SDS011;10652;50.306;8.570;2023-09-12T17:18:43;11.32;;;5.82;;
20986;SDS011;10652;50.306;8.570;2023-09-12T17:22:46;7.78;;;5.55;;
20986;SDS011;10652;50.306;8.570;2023-09-12T17:26:48;9.20;;;5.57;;
20986;SDS011;10652;50.306;8.570;2023-09-12T17:30:50;10.27;;;5.75;;
20986;SDS011;10652;50.306;8.570;2023-09-12T17:34:52;9.98;;;5.50;;
20986;SDS011;10652;50.306;8.570;2023-09-12T17:38:56;15.00;;;6.03;;
20986;SDS011;10652;50.306;8.570;2023-09-12T17:42:58;12.85;;;6.00;;
20986;SDS011;10652;50.306;8.570;2023-09-12T17:47:01;11.85;;;6.18;;
20986;SDS011;10652;50.306;8.570;2023-09-12T17:51:04;13.75;;;6.10;;
20986;SDS011;10652;50.306;8.570;2023-09-12T17:55:06;13.90;;;6.85;;
20986;SDS011;10652;50.306;8.570;2023-09-12T17:59:10;13.20;;;6.25;;
20986;SDS011;10652;50.306;8.570;2023-09-12T18:03:13;14.00;;;7.10;;
20986;SDS011;10652;50.306;8.570;2023-09-12T18:07:15;9.95;;;6.10;;
20986;SDS011;10652;50.306;8.570;2023-09-12T18:11:18;24.05;;;12.25;;
20986;SDS011;10652;50.306;8.570;2023-09-12T18:15:20;13.25;;;7.50;;
20986;SDS011;10652;50.306;8.570;2023-09-12T18:19:22;11.20;;;6.78;;
20986;SDS011;10652;50.306;8.570;2023-09-12T18:23:25;15.57;;;7.50;;
20986;SDS011;10652;50.306;8.570;2023-09-12T18:27:27;11.18;;;6.45;;
20986;SDS011;10652;50.306;8.570;2023-09-12T18:31:29;12.02;;;7.13;;
20986;SDS011;10652;50.306;8.570;2023-09-12T18:35:31;12.45;;;6.85;;
20986;SDS011;10652;50.306;8.570;2023-09-12T18:39:33;10.05;;;6.63;;
20986;SDS011;10652;50.306;8.570;2023-09-12T18:43:35;13.18;;;6.60;;
20986;SDS011;10652;50.306;8.570;2023-09-12T18:47:37;11.10;;;7.40;;
20986;SDS011;10652;50.306;8.570;2023-09-12T18:51:40;15.48;;;7.30;;
20986;SDS011;10652;50.306;8.570;2023-09-12T18:55:43;14.23;;;7.15;;
20986;SDS011;10652;50.306;8.570;2023-09-12T18:59:46;11.45;;;7.70;;
20986;SDS011;10652;50.306;8.570;2023-09-12T19:03:48;12.95;;;7.63;;
20986;SDS011;10652;50.306;8.570;2023-09-12T19:07:51;11.90;;;6.95;;
20986;SDS011;10652;50.306;8.570;2023-09-12T19:11:54;13.60;;;7.60;;
20986;SDS011;10652;50.306;8.570;2023-09-12T19:15:57;13.73;;;7.10;;
20986;SDS011;10652;50.306;8.570;2023-09-12T19:20:00;11.65;;;8.02;;
20986;SDS011;10652;50.306;8.570;2023-09-12T19:24:02;12.00;;;7.22;;
20986;SDS011;10652;50.306;8.570;2023-09-12T19:28:06;12.73;;;6.63;;
20986;SDS011;10652;50.306;8.570;2023-09-12T19:32:10;9.85;;;5.40;;
20986;SDS011;10652;50.306;8.570;2023-09-12T19:36:16;11.18;;;6.70;;
20986;SDS011;10652;50.306;8.570;2023-09-12T19:40:18;13.77;;;6.20;;
20986;SDS011;10652;50.306;8.570;2023-09-12T19:44:21;14.43;;;4.43;;
20986;SDS011;10652;50.306;8.570;2023-09-12T19:48:24;8.23;;;2.58;;
20986;SDS011;10652;50.306;8.570;2023-09-12T19:52:26;4.93;;;2.92;;
20986;SDS011;10652;50.306;8.570;2023-09-12T19:56:28;5.85;;;3.53;;
20986;SDS011;10652;50.306;8.570;2023-09-12T20:00:31;4.88;;;3.55;;
20986;SDS011;10652;50.306;8.570;2023-09-12T20:04:33;6.22;;;3.50;;
20986;SDS011;10652;50.306;8.570;2023-09-12T20:08:36;5.63;;;2.80;;
20986;SDS011;10652;50.306;8.570;2023-09-12T20:12:40;4.53;;;2.28;;
20986;SDS011;10652;50.306;8.570;2023-09-12T20:16:42;3.97;;;2.40;;
20986;SDS011;10652;50.306;8.570;2023-09-12T20:20:45;2.78;;;2.03;;
20986;SDS011;10652;50.306;8.570;2023-09-12T20:24:48;4.65;;;2.60;;
20986;SDS011;10652;50.306;8.570;2023-09-12T20:28:51;4.90;;;2.75;;
20986;SDS011;10652;50.306;8.570;2023-09-12T20:33:00;5.55;;;3.50;;
20986;SDS011;10652;50.306;8.570;2023-09-12T20:41:06;3.20;;;2.33;;
20986;SDS011;10652;50.306;8.570;2023-09-12T20:45:08;5.78;;;2.90;;
20986;SDS011;10652;50.306;8.570;2023-09-12T20:49:10;3.47;;;2.70;;
20986;SDS011;10652;50.306;8.570;2023-09-12T20:53:12;6.07;;;2.67;;
20986;SDS011;10652;50.306;8.570;2023-09-12T20:57:18;3.50;;;2.53;;
20986;SDS011;10652;50.306;8.570;2023-09-12T21:01:22;3.15;;;2.78;;
20986;SDS011;10652;50.306;8.570;2023-09-12T21:05:24;3.85;;;2.97;;
20986;SDS011;10652;50.306;8.570;2023-09-12T21:09:26;3.90;;;2.97;;
20986;SDS011;10652;50.306;8.570;2023-09-12T21:13:28;5.20;;;2.90;;
20986;SDS011;10652;50.306;8.570;2023-09-12T21:17:34;5.88;;;3.40;;
20986;SDS011;10652;50.306;8.570;2023-09-12T21:21:40;4.43;;;3.00;;
20986;SDS011;10652;50.306;8.570;2023-09-12T21:25:43;3.78;;;3.10;;
20986;SDS011;10652;50.306;8.570;2023-09-12T21:29:45;4.53;;;2.95;;
20986;SDS011;10652;50.306;8.570;2023-09-12T21:33:48;3.97;;;2.80;;
20986;SDS011;10652;50.306;8.570;2023-09-12T21:37:50;4.30;;;3.13;;
20986;SDS011;10652;50.306;8.570;2023-09-12T21:41:52;4.72;;;2.90;;
20986;SDS011;10652;50.306;8.570;2023-09-12T21:45:57;3.85;;;2.92;;
20986;SDS011;10652;50.306;8.570;2023-09-12T21:49:59;3.40;;;2.88;;
20986;SDS011;10652;50.306;8.570;2023-09-12T21:54:01;5.90;;;3.53;;
20986;SDS011;10652;50.306;8.570;2023-09-12T21:58:04;5.18;;;3.00;;
20986;SDS011;10652;50.306;8.570;2023-09-12T22:02:06;4.15;;;3.10;;
20986;SDS011;10652;50.306;8.570;2023-09-12T22:06:09;5.65;;;2.55;;
20986;SDS011;10652;50.306;8.570;2023-09-12T22:10:12;5.72;;;2.55;;
20986;SDS011;10652;50.306;8.570;2023-09-12T22:14:14;4.03;;;2.30;;
20986;SDS011;10652;50.306;8.570;2023-09-12T22:18:19;3.85;;;2.30;;
20986;SDS011;10652;50.306;8.570;2023-09-12T22:22:22;2.58;;;2.28;;
20986;SDS011;10652;50.306;8.570;2023-09-12T22:26:24;3.65;;;2.47;;
20986;SDS011;10652;50.306;8.570;2023-09-12T22:30:27;3.35;;;2.10;;
20986;SDS011;10652;50.306;8.570;2023-09-12T22:34:29;3.88;;;2.33;;
20986;SDS011;10652;50.306;8.570;2023-09-12T22:38:32;2.72;;;2.22;;
20986;SDS011;10652;50.306;8.570;2023-09-12T22:42:35;3.05;;;2.22;;
20986;SDS011;10652;50.306;8.570;2023-09-12T22:46:39;2.75;;;2.00;;
20986;SDS011;10652;50.306;8.570;2023-09-12T22:50:42;2.83;;;1.90;;
20986;SDS011;10652;50.306;8.570;2023-09-12T22:54:46;3.03;;;1.98;;
20986;SDS011;10652;50.306;8.570;2023-09-12T22:58:48;3.50;;;2.10;;
20986;SDS011;10652;50.306;8.570;2023-09-12T23:02:50;2.10;;;1.90;;
20986;SDS011;10652;50.306;8.570;2023-09-12T23:06:52;2.95;;;2.20;;
20986;SDS011;10652;50.306;8.570;2023-09-12T23:10:54;3.35;;;2.20;;
20986;SDS011;10652;50.306;8.570;2023-09-12T23:14:56;2.55;;;2.35;;
20986;SDS011;10652;50.306;8.570;2023-09-12T23:18:58;2.78;;;2.00;;
20986;SDS011;10652;50.306;8.570;2023-09-12T23:23:01;2.05;;;1.75;;
20986;SDS011;10652;50.306;8.570;2023-09-12T23:27:04;2.15;;;1.95;;
20986;SDS011;10652;50.306;8.570;2023-09-12T23:31:08;3.55;;;2.17;;
20986;SDS011;10652;50.306;8.570;2023-09-12T23:35:11;3.03;;;2.20;;
20986;SDS011;10652;50.306;8.570;2023-09-12T23:39:13;3.33;;;2.50;;
20986;SDS011;10652;50.306;8.570;2023-09-12T23:43:16;2.97;;;2.00;;
20986;SDS011;10652;50.306;8.570;2023-09-12T23:47:19;2.00;;;1.80;;
20986;SDS011;10652;50.306;8.570;2023-09-12T23:51:21;2.38;;;2.03;;
20986;SDS011;10652;50.306;8.570;2023-09-12T23:55:23;2.72;;;1.95;;
20986;SDS011;10652;50.306;8.570;2023-09-12T23:59:25;3.17;;;2.08;;
